Time;durP1;ratioP1;P1;durP2;ratioP2;P2;SDS_P1;SDS_P2;PMS_P1;PMS_P2;Temp;Humidity;BMP_temperature;BMP_pressure;BME280_temperature;BME280_humidity;BME280_pressure;Samples;Min_cycle;Max_cycle;Signal;HPM_P1;HPM_P2
2022/11/07 00:00:30;;;;;;;11.93;5.37;;;;;;;;;;5066680;28;20137;-65
2022/11/07 00:02:56;;;;;;;10.90;5.07;;;;;;;;;;5069256;28;20131;-65
2022/11/07 00:05:22;;;;;;;11.43;5.80;;;;;;;;;;5069395;28;20052;-65
2022/11/07 00:07:48;;;;;;;10.87;6.00;;;;;;;;;;5068597;28;20055;-65
2022/11/07 00:10:14;;;;;;;13.67;5.30;;;;;;;;;;5064748;28;20048;-65
2022/11/07 00:12:40;;;;;;;10.20;5.03;;;;;;;;;;5050449;28;20562;-65
2022/11/07 00:15:06;;;;;;;7.70;4.50;;;;;;;;;;5049053;28;20107;-65
2022/11/07 00:17:32;;;;;;;11.60;4.73;;;;;;;;;;5048735;28;20518;-65
2022/11/07 00:19:59;;;;;;;11.73;4.97;;;;;;;;;;5060546;28;20417;-65
2022/11/07 00:22:25;;;;;;;13.33;4.50;;;;;;;;;;5068278;28;20044;-65
2022/11/07 00:24:51;;;;;;;11.33;5.27;;;;;;;;;;5068946;28;20052;-65
2022/11/07 00:27:17;;;;;;;10.53;5.23;;;;;;;;;;5068766;28;20044;-65
2022/11/07 00:29:43;;;;;;;11.87;4.83;;;;;;;;;;5067966;28;20052;-65
2022/11/07 00:32:09;;;;;;;10.43;4.87;;;;;;;;;;5068465;28;20055;-65
2022/11/07 00:34:35;;;;;;;10.13;4.97;;;;;;;;;;5068838;28;20045;-65
2022/11/07 00:37:01;;;;;;;10.70;5.23;;;;;;;;;;5068828;28;20041;-65
2022/11/07 00:39:28;;;;;;;13.27;4.73;;;;;;;;;;5061089;28;20511;-65
2022/11/07 00:41:54;;;;;;;8.57;4.57;;;;;;;;;;5048818;28;20411;-65
2022/11/07 00:44:20;;;;;;;9.53;4.70;;;;;;;;;;5048453;28;20041;-65
2022/11/07 00:46:46;;;;;;;13.67;5.17;;;;;;;;;;5048025;28;20060;-64
2022/11/07 00:49:12;;;;;;;11.07;5.73;;;;;;;;;;5048732;28;20040;-65
2022/11/07 00:51:38;;;;;;;7.83;4.97;;;;;;;;;;5048644;28;20045;-65
2022/11/07 00:54:04;;;;;;;8.23;4.83;;;;;;;;;;5048378;28;20052;-65
2022/11/07 00:56:31;;;;;;;9.60;5.40;;;;;;;;;;5048348;28;20467;-65
2022/11/07 00:58:57;;;;;;;13.03;5.80;;;;;;;;;;5048160;28;20102;-65
2022/11/07 01:01:25;;;;;;;12.57;5.40;;;;;;;;;;5047136;28;20053;-65
2022/11/07 01:06:37;;;;;;;11.37;4.70;;;;;;;;;;5048759;28;20077;-65
2022/11/07 01:09:05;;;;;;;10.63;5.00;;;;;;;;;;5053541;28;20044;-65
2022/11/07 01:11:31;;;;;;;15.80;5.47;;;;;;;;;;5067854;28;20041;-65
2022/11/07 01:14:01;;;;;;;10.27;4.23;;;;;;;;;;5068415;28;20127;-65
2022/11/07 01:16:28;;;;;;;14.27;5.30;;;;;;;;;;5068650;28;20053;-65
2022/11/07 01:18:54;;;;;;;11.27;5.17;;;;;;;;;;5065904;28;20040;-65
2022/11/07 01:21:21;;;;;;;12.17;4.87;;;;;;;;;;5070448;28;20044;-65
2022/11/07 01:23:47;;;;;;;12.57;4.27;;;;;;;;;;5072092;28;20048;-65
2022/11/07 01:26:13;;;;;;;10.33;4.30;;;;;;;;;;5072374;28;20044;-65
2022/11/07 01:28:39;;;;;;;9.33;4.13;;;;;;;;;;5070267;28;20083;-64
2022/11/07 01:31:06;;;;;;;12.13;4.70;;;;;;;;;;5052227;28;20041;-65
2022/11/07 01:33:32;;;;;;;9.20;4.37;;;;;;;;;;5052078;28;20074;-64
2022/11/07 01:36:02;;;;;;;11.87;4.30;;;;;;;;;;5052696;28;20040;-65
2022/11/07 01:38:28;;;;;;;14.07;4.43;;;;;;;;;;5051906;28;20160;-64
2022/11/07 01:43:46;;;;;;;14.93;4.80;;;;;;;;;;5072274;28;20052;-65
2022/11/07 01:46:13;;;;;;;10.57;4.10;;;;;;;;;;5072160;28;20040;-65
2022/11/07 01:48:40;;;;;;;9.80;3.80;;;;;;;;;;5070773;28;20103;-65
2022/11/07 01:51:07;;;;;;;12.73;4.03;;;;;;;;;;5070190;28;20049;-65
2022/11/07 01:53:34;;;;;;;13.07;3.73;;;;;;;;;;5071119;28;20052;-65
2022/11/07 01:56:01;;;;;;;9.60;3.63;;;;;;;;;;5072072;28;20044;-65
2022/11/07 01:58:27;;;;;;;14.53;3.93;;;;;;;;;;5071757;28;20054;-65
2022/11/07 02:00:53;;;;;;;10.13;3.70;;;;;;;;;;5071700;28;20190;-65
2022/11/07 02:03:20;;;;;;;12.70;3.87;;;;;;;;;;5070083;28;20056;-65
2022/11/07 02:05:48;;;;;;;14.57;4.23;;;;;;;;;;5065409;28;20395;-65
2022/11/07 02:08:15;;;;;;;9.43;3.43;;;;;;;;;;5051661;28;20080;-64
2022/11/07 02:10:42;;;;;;;15.93;4.03;;;;;;;;;;5051243;28;20044;-64
2022/11/07 02:13:08;;;;;;;13.50;4.57;;;;;;;;;;5050351;28;20053;-65
2022/11/07 02:15:35;;;;;;;13.00;3.70;;;;;;;;;;5050202;28;20099;-64
2022/11/07 02:18:01;;;;;;;12.43;4.10;;;;;;;;;;5049964;28;20419;-65
2022/11/07 02:20:27;;;;;;;11.40;4.40;;;;;;;;;;5049630;28;20102;-65
2022/11/07 02:22:55;;;;;;;11.00;4.13;;;;;;;;;;5052377;28;20048;-65
2022/11/07 02:25:22;;;;;;;9.73;3.53;;;;;;;;;;5049792;28;20388;-65
2022/11/07 02:27:50;;;;;;;15.60;3.73;;;;;;;;;;5050001;28;20041;-65
2022/11/07 02:30:34;;;;;;;18.40;4.17;;;;;;;;;;5049609;28;20045;-65
2022/11/07 02:33:01;;;;;;;14.23;4.30;;;;;;;;;;5049739;28;20044;-65
2022/11/07 02:35:47;;;;;;;11.50;3.97;;;;;;;;;;5049642;28;20164;-65
2022/11/07 02:38:17;;;;;;;10.03;4.13;;;;;;;;;;5049524;28;20699;-65
2022/11/07 02:40:44;;;;;;;14.07;4.33;;;;;;;;;;5057337;28;20076;-65
2022/11/07 02:43:13;;;;;;;14.33;4.33;;;;;;;;;;5056016;28;20119;-65
2022/11/07 02:45:40;;;;;;;11.17;4.07;;;;;;;;;;5049734;28;20593;-65
2022/11/07 02:48:06;;;;;;;21.43;5.43;;;;;;;;;;5049557;28;20076;-65
2022/11/07 02:50:32;;;;;;;17.90;5.47;;;;;;;;;;5049421;28;20510;-65
2022/11/07 02:52:58;;;;;;;15.17;5.90;;;;;;;;;;5064804;28;20429;-65
2022/11/07 02:55:24;;;;;;;14.47;5.73;;;;;;;;;;5069470;28;20139;-65
2022/11/07 02:57:50;;;;;;;13.57;5.87;;;;;;;;;;5069491;28;20097;-66
2022/11/07 03:00:17;;;;;;;12.80;4.87;;;;;;;;;;5069008;28;20860;-65
2022/11/07 03:02:46;;;;;;;14.17;5.27;;;;;;;;;;5067753;28;20048;-65
2022/11/07 03:05:13;;;;;;;17.50;5.30;;;;;;;;;;5069344;28;20051;-65
2022/11/07 03:07:40;;;;;;;13.57;5.43;;;;;;;;;;5068072;28;20094;-65
2022/11/07 03:10:06;;;;;;;19.10;7.20;;;;;;;;;;5069282;28;20072;-65
2022/11/07 03:12:33;;;;;;;16.03;6.07;;;;;;;;;;5032031;28;1072394;-65
2022/11/07 03:14:59;;;;;;;20.53;6.73;;;;;;;;;;5070153;28;20050;-65
2022/11/07 03:17:25;;;;;;;16.57;5.57;;;;;;;;;;5068321;28;20048;-65
2022/11/07 03:19:51;;;;;;;17.90;5.83;;;;;;;;;;5048888;28;20479;-65
2022/11/07 03:22:17;;;;;;;19.57;5.73;;;;;;;;;;5049920;28;20045;-65
2022/11/07 03:24:43;;;;;;;15.97;4.53;;;;;;;;;;5049588;28;20388;-65
2022/11/07 03:27:09;;;;;;;12.50;5.23;;;;;;;;;;5050046;28;20430;-65
2022/11/07 03:29:35;;;;;;;17.27;5.80;;;;;;;;;;5048895;28;20044;-66
2022/11/07 03:32:01;;;;;;;15.93;4.83;;;;;;;;;;5050221;28;20052;-65
2022/11/07 03:34:27;;;;;;;17.77;4.67;;;;;;;;;;5049794;28;20045;-65
2022/11/07 03:36:53;;;;;;;13.90;4.40;;;;;;;;;;5049991;28;20415;-65
2022/11/07 03:39:21;;;;;;;21.50;4.80;;;;;;;;;;5066775;28;20510;-65
2022/11/07 03:41:47;;;;;;;14.93;5.03;;;;;;;;;;5068973;28;20136;-65
2022/11/07 03:44:13;;;;;;;17.33;4.60;;;;;;;;;;5069820;28;20488;-65
2022/11/07 03:46:39;;;;;;;14.47;4.20;;;;;;;;;;5069710;28;20051;-65
2022/11/07 03:49:05;;;;;;;22.67;6.37;;;;;;;;;;5051923;28;20048;-65
2022/11/07 03:51:31;;;;;;;10.90;4.03;;;;;;;;;;5047817;28;20098;-65
2022/11/07 03:53:57;;;;;;;8.80;4.00;;;;;;;;;;5048257;28;20049;-65
2022/11/07 03:56:23;;;;;;;14.97;4.30;;;;;;;;;;5048346;28;20049;-65
2022/11/07 03:58:49;;;;;;;13.70;4.27;;;;;;;;;;5048008;28;20051;-65
2022/11/07 04:01:15;;;;;;;12.80;4.27;;;;;;;;;;5066312;28;20090;-65
2022/11/07 04:03:41;;;;;;;14.60;4.10;;;;;;;;;;5069162;28;20484;-65
2022/11/07 04:06:07;;;;;;;17.63;4.50;;;;;;;;;;5069195;28;20127;-65
2022/11/07 04:08:34;;;;;;;17.57;5.23;;;;;;;;;;5069318;28;20140;-65
2022/11/07 04:11:00;;;;;;;16.30;5.57;;;;;;;;;;5068901;28;20123;-65
2022/11/07 04:18:56;;;;;;;13.00;4.27;;;;;;;;;;5067167;28;20094;-65
2022/11/07 04:21:22;;;;;;;19.47;4.60;;;;;;;;;;5068613;28;20434;-65
2022/11/07 04:23:48;;;;;;;13.80;4.97;;;;;;;;;;5068340;28;20384;-65
2022/11/07 04:28:59;;;;;;;13.40;4.70;;;;;;;;;;5068756;28;20396;-65
2022/11/07 04:31:25;;;;;;;15.40;4.87;;;;;;;;;;5068830;28;20055;-64
2022/11/07 04:33:51;;;;;;;9.67;4.10;;;;;;;;;;5068414;28;20044;-65
2022/11/07 04:36:17;;;;;;;15.10;4.60;;;;;;;;;;5068624;28;20625;-64
2022/11/07 04:38:43;;;;;;;13.07;5.20;;;;;;;;;;5068854;28;20044;-65
2022/11/07 04:41:21;;;;;;;9.50;4.70;;;;;;;;;;5068143;28;20048;-65
2022/11/07 04:43:47;;;;;;;14.10;4.70;;;;;;;;;;5068157;28;20058;-65
2022/11/07 04:46:13;;;;;;;17.17;5.37;;;;;;;;;;5068652;28;20051;-65
2022/11/07 04:48:39;;;;;;;20.30;7.13;;;;;;;;;;5066583;28;20072;-65
2022/11/07 04:51:05;;;;;;;14.10;4.83;;;;;;;;;;5068484;28;20048;-64
2022/11/07 04:53:31;;;;;;;13.23;4.67;;;;;;;;;;5067184;28;20048;-64
2022/11/07 04:55:57;;;;;;;16.73;5.27;;;;;;;;;;5068241;28;20036;-65
2022/11/07 04:58:23;;;;;;;12.90;5.40;;;;;;;;;;5067430;28;20850;-65
2022/11/07 05:00:49;;;;;;;13.77;5.60;;;;;;;;;;5068427;28;20056;-65
2022/11/07 05:03:16;;;;;;;12.50;5.40;;;;;;;;;;5068231;28;20049;-64
2022/11/07 05:05:42;;;;;;;12.13;6.07;;;;;;;;;;5048271;28;20140;-65
2022/11/07 05:08:08;;;;;;;11.93;5.43;;;;;;;;;;5050749;28;20156;-65
2022/11/07 05:10:34;;;;;;;18.00;6.17;;;;;;;;;;5068145;28;20090;-64
2022/11/07 05:13:00;;;;;;;13.43;5.00;;;;;;;;;;5068399;28;20102;-65
2022/11/07 05:15:26;;;;;;;7.20;4.57;;;;;;;;;;5068399;28;20052;-64
2022/11/07 05:17:52;;;;;;;15.77;5.50;;;;;;;;;;5065910;28;20044;-65
2022/11/07 05:20:18;;;;;;;17.47;5.43;;;;;;;;;;5068064;28;20048;-65
2022/11/07 05:25:29;;;;;;;21.37;5.33;;;;;;;;;;5068244;28;20130;-65
2022/11/07 05:27:55;;;;;;;14.70;5.00;;;;;;;;;;5067150;28;20080;-65
2022/11/07 05:30:21;;;;;;;13.10;4.73;;;;;;;;;;5067903;28;20044;-65
2022/11/07 05:32:47;;;;;;;14.33;5.50;;;;;;;;;;5062869;28;20401;-64
2022/11/07 05:35:13;;;;;;;12.57;4.83;;;;;;;;;;5058696;28;20686;-64
2022/11/07 05:37:39;;;;;;;16.10;5.57;;;;;;;;;;5048513;28;20045;-65
2022/11/07 05:40:06;;;;;;;15.77;4.93;;;;;;;;;;5047959;28;20052;-65
2022/11/07 05:42:32;;;;;;;15.53;4.87;;;;;;;;;;5047610;28;20053;-65
2022/11/07 05:44:58;;;;;;;16.17;4.83;;;;;;;;;;5061246;28;20044;-64
2022/11/07 05:47:24;;;;;;;14.47;5.90;;;;;;;;;;5067212;28;20040;-65
2022/11/07 05:49:50;;;;;;;13.47;4.63;;;;;;;;;;5066641;28;20468;-65
2022/11/07 05:52:16;;;;;;;12.53;5.20;;;;;;;;;;5067503;28;20066;-65
2022/11/07 05:54:42;;;;;;;9.97;4.90;;;;;;;;;;5066955;28;20083;-64
2022/11/07 05:57:08;;;;;;;10.47;4.77;;;;;;;;;;5067187;28;20573;-64
2022/11/07 05:59:34;;;;;;;13.97;5.83;;;;;;;;;;5066263;28;20098;-65
2022/11/07 06:02:00;;;;;;;13.33;6.20;;;;;;;;;;5066098;28;20388;-65
2022/11/07 06:04:26;;;;;;;14.37;6.13;;;;;;;;;;5064169;28;20048;-65
2022/11/07 06:06:52;;;;;;;12.50;6.27;;;;;;;;;;5058109;28;20319;-65
2022/11/07 06:09:18;;;;;;;23.40;8.40;;;;;;;;;;5049587;28;20069;-65
2022/11/07 06:11:44;;;;;;;15.60;7.83;;;;;;;;;;5049746;28;20037;-65
2022/11/07 06:14:10;;;;;;;17.63;7.37;;;;;;;;;;5050074;28;20045;-65
2022/11/07 06:16:36;;;;;;;17.70;7.60;;;;;;;;;;5049372;28;20053;-65
2022/11/07 06:19:02;;;;;;;17.63;7.33;;;;;;;;;;5051270;28;20073;-65
2022/11/07 06:21:28;;;;;;;18.03;8.20;;;;;;;;;;5049825;28;20049;-65
2022/11/07 06:23:54;;;;;;;15.47;7.43;;;;;;;;;;5050334;28;20055;-65
2022/11/07 06:26:20;;;;;;;16.00;7.50;;;;;;;;;;5050905;28;20041;-65
2022/11/07 06:28:46;;;;;;;19.80;7.90;;;;;;;;;;5057701;28;20043;-65
2022/11/07 06:31:12;;;;;;;16.37;7.43;;;;;;;;;;5070315;28;20131;-65
2022/11/07 06:33:38;;;;;;;21.63;8.83;;;;;;;;;;5058404;28;20072;-65
2022/11/07 06:36:06;;;;;;;22.70;7.13;;;;;;;;;;5050866;28;20048;-65
2022/11/07 06:38:32;;;;;;;25.20;7.77;;;;;;;;;;5050754;28;20511;-65
2022/11/07 06:41:09;;;;;;;16.73;6.93;;;;;;;;;;5050682;28;20041;-65
2022/11/07 06:43:35;;;;;;;20.77;7.87;;;;;;;;;;5050439;28;20110;-65
2022/11/07 06:46:02;;;;;;;21.37;8.80;;;;;;;;;;5050333;28;20103;-65
2022/11/07 06:48:28;;;;;;;16.33;6.47;;;;;;;;;;5050449;28;20041;-65
2022/11/07 06:50:57;;;;;;;21.60;6.67;;;;;;;;;;5050340;28;20048;-65
2022/11/07 06:53:24;;;;;;;18.20;6.97;;;;;;;;;;5051198;28;20119;-65
2022/11/07 06:55:50;;;;;;;18.37;7.00;;;;;;;;;;5050095;28;20049;-65
2022/11/07 06:58:16;;;;;;;19.40;6.30;;;;;;;;;;5049540;28;20463;-65
2022/11/07 07:00:42;;;;;;;21.23;6.97;;;;;;;;;;5049483;28;20151;-65
2022/11/07 07:03:11;;;;;;;29.77;7.93;;;;;;;;;;5051009;28;20049;-65
2022/11/07 07:05:37;;;;;;;18.27;6.23;;;;;;;;;;5049781;28;20049;-65
2022/11/07 07:08:05;;;;;;;15.47;5.67;;;;;;;;;;5049785;28;20044;-65
2022/11/07 07:10:34;;;;;;;18.43;5.93;;;;;;;;;;5049103;28;20102;-65
2022/11/07 07:13:00;;;;;;;21.23;5.90;;;;;;;;;;5049603;28;20115;-65
2022/11/07 07:15:26;;;;;;;15.57;6.40;;;;;;;;;;5048044;28;20057;-65
2022/11/07 07:17:52;;;;;;;16.33;6.00;;;;;;;;;;5050173;28;20044;-65
2022/11/07 07:20:18;;;;;;;18.10;5.57;;;;;;;;;;5068612;28;20098;-65
2022/11/07 07:22:44;;;;;;;16.13;5.40;;;;;;;;;;5068933;28;20080;-65
2022/11/07 07:25:10;;;;;;;22.63;6.10;;;;;;;;;;5069589;28;20414;-65
2022/11/07 07:27:36;;;;;;;16.60;4.97;;;;;;;;;;5067687;28;20048;-64
2022/11/07 07:30:03;;;;;;;17.90;6.37;;;;;;;;;;5067774;28;20048;-65
2022/11/07 07:32:29;;;;;;;15.33;5.10;;;;;;;;;;5069111;28;20764;-65
2022/11/07 07:34:55;;;;;;;18.47;5.23;;;;;;;;;;5068895;28;20048;-65
2022/11/07 07:37:21;;;;;;;15.67;4.47;;;;;;;;;;5069080;28;20053;-65
2022/11/07 07:39:47;;;;;;;13.80;5.13;;;;;;;;;;5068092;28;20110;-64
2022/11/07 07:42:13;;;;;;;14.30;5.67;;;;;;;;;;5068900;28;20053;-65
2022/11/07 07:44:39;;;;;;;17.60;5.00;;;;;;;;;;5068974;28;20052;-64
2022/11/07 07:47:08;;;;;;;16.93;5.70;;;;;;;;;;5069334;28;20044;-64
2022/11/07 07:49:34;;;;;;;15.63;3.87;;;;;;;;;;5068410;28;20048;-65
2022/11/07 07:52:00;;;;;;;19.23;4.80;;;;;;;;;;5068911;28;20052;-65
2022/11/07 07:54:26;;;;;;;20.53;5.53;;;;;;;;;;5069028;28;20055;-65
2022/11/07 07:56:52;;;;;;;14.70;4.83;;;;;;;;;;5049855;28;20048;-65
2022/11/07 07:59:18;;;;;;;20.00;4.83;;;;;;;;;;5048659;28;20049;-64
2022/11/07 08:01:44;;;;;;;16.37;4.10;;;;;;;;;;5049105;28;20110;-65
2022/11/07 08:04:10;;;;;;;19.43;4.40;;;;;;;;;;5049046;28;20057;-64
2022/11/07 08:06:36;;;;;;;13.80;4.03;;;;;;;;;;5048809;28;20041;-64
2022/11/07 08:09:03;;;;;;;19.73;5.50;;;;;;;;;;5055980;28;20051;-64
2022/11/07 08:11:29;;;;;;;22.57;5.90;;;;;;;;;;5066867;28;20098;-64
2022/11/07 08:13:55;;;;;;;14.37;4.37;;;;;;;;;;5067378;28;20406;-64
2022/11/07 08:16:21;;;;;;;17.70;4.37;;;;;;;;;;5068483;28;20055;-64
2022/11/07 08:18:47;;;;;;;16.70;4.50;;;;;;;;;;5068278;28;20045;-64
2022/11/07 08:21:13;;;;;;;13.30;4.27;;;;;;;;;;5067923;28;20059;-64
2022/11/07 08:23:39;;;;;;;18.43;4.10;;;;;;;;;;5067177;28;20045;-65
2022/11/07 08:26:06;;;;;;;16.33;3.30;;;;;;;;;;5060999;28;20051;-65
2022/11/07 08:28:34;;;;;;;16.33;3.80;;;;;;;;;;5049032;28;20037;-64
2022/11/07 08:31:07;;;;;;;17.83;4.13;;;;;;;;;;5059655;28;20045;-65
2022/11/07 08:33:33;;;;;;;15.95;3.65;;;;;;;;;;5048532;28;20049;-65
2022/11/07 08:36:00;;;;;;;14.47;4.37;;;;;;;;;;5061890;28;20052;-64
2022/11/07 08:38:27;;;;;;;15.90;3.77;;;;;;;;;;5066964;28;20498;-64
2022/11/07 08:40:53;;;;;;;15.07;4.47;;;;;;;;;;5068196;28;20407;-64
2022/11/07 08:43:19;;;;;;;13.20;3.67;;;;;;;;;;5068249;28;20049;-64
2022/11/07 08:45:46;;;;;;;16.43;4.03;;;;;;;;;;5067850;28;20041;-64
2022/11/07 08:48:12;;;;;;;13.90;3.60;;;;;;;;;;5053621;28;20057;-65
2022/11/07 08:50:39;;;;;;;12.40;3.30;;;;;;;;;;5048384;28;20041;-65
2022/11/07 08:53:05;;;;;;;12.53;3.50;;;;;;;;;;5047950;28;20759;-64
2022/11/07 08:55:31;;;;;;;15.93;4.77;;;;;;;;;;5048058;28;20487;-64
2022/11/07 08:57:59;;;;;;;11.37;5.17;;;;;;;;;;5047408;28;20325;-65
2022/11/07 09:00:25;;;;;;;15.07;3.80;;;;;;;;;;5051936;28;20380;-65
2022/11/07 09:02:51;;;;;;;18.13;3.57;;;;;;;;;;5053893;28;20060;-65
2022/11/07 09:05:17;;;;;;;13.07;3.50;;;;;;;;;;5062591;28;20052;-64
2022/11/07 09:07:43;;;;;;;15.63;3.63;;;;;;;;;;5059657;28;20044;-64
2022/11/07 09:10:10;;;;;;;15.47;3.23;;;;;;;;;;5063827;28;20418;-64
2022/11/07 09:12:36;;;;;;;9.77;3.90;;;;;;;;;;5066174;28;20052;-64
2022/11/07 09:15:03;;;;;;;13.83;4.70;;;;;;;;;;5065533;28;20079;-64
2022/11/07 09:17:29;;;;;;;12.30;3.30;;;;;;;;;;5061389;28;20421;-64
2022/11/07 09:19:55;;;;;;;14.10;3.27;;;;;;;;;;5067461;28;20045;-64
2022/11/07 09:22:21;;;;;;;13.67;3.27;;;;;;;;;;5067960;28;20513;-64
2022/11/07 09:24:47;;;;;;;11.50;3.00;;;;;;;;;;5061513;28;20486;-64
2022/11/07 09:27:13;;;;;;;11.40;3.43;;;;;;;;;;5049452;28;20052;-64
2022/11/07 09:29:39;;;;;;;10.27;3.50;;;;;;;;;;5047536;28;20049;-64
2022/11/07 09:32:05;;;;;;;19.73;3.50;;;;;;;;;;5047586;28;20098;-64
2022/11/07 09:34:31;;;;;;;15.97;4.17;;;;;;;;;;5045305;28;20049;-65
2022/11/07 09:36:57;;;;;;;17.90;3.63;;;;;;;;;;5047646;28;20185;-65
2022/11/07 09:39:23;;;;;;;16.17;3.93;;;;;;;;;;5050923;28;20087;-65
2022/11/07 09:41:49;;;;;;;14.50;3.73;;;;;;;;;;5049820;28;20578;-64
2022/11/07 09:44:18;;;;;;;19.03;4.43;;;;;;;;;;5051067;28;20041;-64
2022/11/07 09:47:03;;;;;;;12.77;3.73;;;;;;;;;;5050197;28;20041;-64
2022/11/07 09:49:37;;;;;;;17.57;5.57;;;;;;;;;;5051001;28;20053;-64
2022/11/07 09:52:03;;;;;;;20.13;4.60;;;;;;;;;;5050352;28;20107;-64
2022/11/07 09:54:32;;;;;;;14.30;4.10;;;;;;;;;;5050954;28;20048;-64
2022/11/07 09:56:59;;;;;;;15.53;4.10;;;;;;;;;;5050935;28;20037;-64
2022/11/07 09:59:29;;;;;;;12.77;3.50;;;;;;;;;;5051113;28;20521;-64
2022/11/07 10:01:55;;;;;;;13.80;4.30;;;;;;;;;;5051072;28;20041;-65
2022/11/07 10:04:22;;;;;;;12.63;3.73;;;;;;;;;;5060401;28;20051;-64
2022/11/07 10:06:51;;;;;;;17.37;3.80;;;;;;;;;;5070929;28;20051;-64
2022/11/07 10:09:31;;;;;;;13.53;3.30;;;;;;;;;;5068826;28;20044;-64
2022/11/07 10:12:06;;;;;;;11.13;3.23;;;;;;;;;;5069099;28;20060;-64
2022/11/07 10:14:42;;;;;;;10.43;2.87;;;;;;;;;;5070964;28;20180;-64
2022/11/07 10:17:17;;;;;;;17.10;3.60;;;;;;;;;;5070469;28;20044;-64
2022/11/07 10:20:21;;;;;;;11.83;3.17;;;;;;;;;;5069746;28;20040;-64
2022/11/07 10:22:54;;;;;;;11.07;3.10;;;;;;;;;;5028003;28;20539;-64
2022/11/07 10:25:34;;;;;;;11.63;2.80;;;;;;;;;;5011659;28;20049;-64
2022/11/07 10:28:00;;;;;;;10.33;2.80;;;;;;;;;;5032751;28;20057;-64
2022/11/07 10:30:26;;;;;;;7.47;2.90;;;;;;;;;;5050875;28;20049;-64
2022/11/07 10:33:05;;;;;;;15.57;3.23;;;;;;;;;;5051332;28;20503;-64
2022/11/07 10:35:33;;;;;;;10.20;2.90;;;;;;;;;;5070321;28;20036;-64
2022/11/07 10:38:03;;;;;;;10.67;2.50;;;;;;;;;;5069905;28;20075;-64
2022/11/07 10:40:37;;;;;;;7.30;2.70;;;;;;;;;;5070309;28;20477;-65
2022/11/07 10:43:05;;;;;;;15.07;3.27;;;;;;;;;;5053650;28;20388;-64
2022/11/07 10:45:31;;;;;;;13.67;3.17;;;;;;;;;;5048447;28;20049;-65
2022/11/07 10:48:01;;;;;;;10.90;2.50;;;;;;;;;;5048582;28;20052;-65
2022/11/07 10:50:28;;;;;;;10.40;3.30;;;;;;;;;;5048760;28;20045;-65
2022/11/07 10:53:02;;;;;;;15.53;4.27;;;;;;;;;;5049926;28;20075;-65
2022/11/07 10:55:31;;;;;;;12.77;3.23;;;;;;;;;;5049635;28;20052;-64
2022/11/07 10:57:58;;;;;;;13.37;4.03;;;;;;;;;;5049496;28;20037;-65
2022/11/07 11:00:25;;;;;;;12.83;3.23;;;;;;;;;;5050086;28;20041;-64
2022/11/07 11:02:51;;;;;;;10.83;3.20;;;;;;;;;;5049836;28;20049;-65
2022/11/07 11:05:23;;;;;;;13.87;3.50;;;;;;;;;;5050121;28;20077;-65
2022/11/07 11:07:49;;;;;;;10.97;2.60;;;;;;;;;;5049863;28;20543;-64
2022/11/07 11:10:21;;;;;;;8.67;2.60;;;;;;;;;;5049532;28;20526;-64
2022/11/07 11:12:48;;;;;;;8.63;2.63;;;;;;;;;;5049763;28;20061;-64
2022/11/07 11:15:19;;;;;;;11.10;2.77;;;;;;;;;;5049703;28;20453;-65
2022/11/07 11:17:45;;;;;;;11.13;2.73;;;;;;;;;;5049451;28;20477;-64
2022/11/07 11:20:30;;;;;;;15.50;3.07;;;;;;;;;;5049613;28;20041;-64
2022/11/07 11:22:56;;;;;;;11.37;2.80;;;;;;;;;;5049587;28;20359;-64
2022/11/07 11:25:25;;;;;;;11.10;2.83;;;;;;;;;;5049296;28;20033;-64
2022/11/07 11:28:06;;;;;;;11.97;3.00;;;;;;;;;;5056698;28;20044;-64
2022/11/07 11:30:35;;;;;;;10.43;3.97;;;;;;;;;;5049412;28;20461;-64
2022/11/07 11:33:06;;;;;;;9.80;2.83;;;;;;;;;;5048590;28;20091;-65
2022/11/07 11:35:38;;;;;;;12.93;3.97;;;;;;;;;;5053331;28;20037;-64
2022/11/07 11:38:23;;;;;;;13.17;4.07;;;;;;;;;;5067773;28;20044;-64
2022/11/07 11:40:58;;;;;;;13.13;3.07;;;;;;;;;;5068820;28;20097;-64
2022/11/07 11:43:25;;;;;;;11.23;3.40;;;;;;;;;;5068926;28;20127;-64
2022/11/07 11:46:03;;;;;;;14.60;3.40;;;;;;;;;;5068587;28;20414;-64
2022/11/07 11:48:29;;;;;;;8.07;3.00;;;;;;;;;;5052304;28;20149;-64
2022/11/07 11:50:58;;;;;;;9.73;2.83;;;;;;;;;;5069304;28;20043;-64
2022/11/07 11:53:24;;;;;;;10.57;3.97;;;;;;;;;;5064286;28;20105;-64
2022/11/07 11:55:57;;;;;;;10.53;3.43;;;;;;;;;;5069068;28;20052;-64
2022/11/07 11:58:30;;;;;;;12.43;4.25;;;;;;;;;;5068873;28;20044;-64
2022/11/07 12:01:15;;;;;;;13.43;2.90;;;;;;;;;;5060141;28;20044;-64
2022/11/07 12:03:51;;;;;;;8.13;4.00;;;;;;;;;;5048304;28;20049;-63
2022/11/07 12:06:23;;;;;;;11.77;2.93;;;;;;;;;;5053044;28;20048;-64
2022/11/07 12:08:49;;;;;;;10.27;2.73;;;;;;;;;;5049256;28;20044;-63
2022/11/07 12:11:15;;;;;;;11.73;3.37;;;;;;;;;;5066035;28;20048;-63
2022/11/07 12:14:00;;;;;;;16.47;3.50;;;;;;;;;;5067475;28;20053;-63
2022/11/07 12:16:30;;;;;;;11.57;3.20;;;;;;;;;;5066046;28;20052;-63
2022/11/07 12:19:08;;;;;;;10.77;3.47;;;;;;;;;;5067228;28;20447;-63
2022/11/07 12:21:46;;;;;;;10.93;2.80;;;;;;;;;;5064386;28;20135;-63
2022/11/07 12:24:12;;;;;;;9.10;3.10;;;;;;;;;;5068515;28;20049;-63
2022/11/07 12:26:41;;;;;;;12.53;2.70;;;;;;;;;;5062986;28;20041;-63
2022/11/07 12:29:22;;;;;;;8.10;3.00;;;;;;;;;;5068464;28;20048;-63
2022/11/07 12:31:57;;;;;;;9.63;2.87;;;;;;;;;;5067021;28;20128;-63
2022/11/07 12:34:23;;;;;;;10.17;2.63;;;;;;;;;;5067125;28;20048;-63
2022/11/07 12:37:11;;;;;;;7.60;2.80;;;;;;;;;;5068582;28;20051;-63
2022/11/07 12:39:50;;;;;;;13.23;2.90;;;;;;;;;;5068347;28;20052;-63
2022/11/07 12:42:28;;;;;;;13.43;3.47;;;;;;;;;;5062638;28;20498;-63
2022/11/07 12:45:09;;;;;;;7.50;2.77;;;;;;;;;;5060748;28;20040;-63
2022/11/07 12:47:44;;;;;;;7.47;2.33;;;;;;;;;;5067009;28;20474;-63
2022/11/07 12:50:17;;;;;;;13.40;3.53;;;;;;;;;;5065988;28;20070;-63
2022/11/07 12:52:50;;;;;;;13.17;3.20;;;;;;;;;;5065924;28;20063;-63
2022/11/07 12:55:22;;;;;;;11.07;4.07;;;;;;;;;;5048046;28;20045;-62
2022/11/07 12:57:50;;;;;;;9.17;3.20;;;;;;;;;;5045767;28;20041;-63
2022/11/07 13:00:19;;;;;;;13.40;3.73;;;;;;;;;;5046302;28;20044;-62
2022/11/07 13:02:45;;;;;;;12.23;3.57;;;;;;;;;;5056443;28;20555;-62
2022/11/07 13:05:34;;;;;;;15.40;3.20;;;;;;;;;;5064162;28;20048;-62
2022/11/07 13:08:04;;;;;;;9.17;2.83;;;;;;;;;;5064360;28;20405;-63
2022/11/07 13:10:39;;;;;;;15.10;4.03;;;;;;;;;;5060832;28;20068;-62
2022/11/07 13:13:17;;;;;;;14.07;3.73;;;;;;;;;;5060335;28;20130;-62
2022/11/07 13:15:43;;;;;;;11.90;4.27;;;;;;;;;;5062889;28;20105;-62
2022/11/07 13:18:25;;;;;;;12.20;3.90;;;;;;;;;;5066835;28;20040;-63
2022/11/07 13:21:02;;;;;;;10.47;3.03;;;;;;;;;;5070881;28;20355;-62
2022/11/07 13:23:28;;;;;;;14.77;4.43;;;;;;;;;;5070749;28;20048;-62
2022/11/07 13:26:01;;;;;;;12.33;3.60;;;;;;;;;;5071302;28;20046;-62
2022/11/07 13:28:36;;;;;;;12.60;3.78;;;;;;;;;;5071116;28;20111;-62
2022/11/07 13:31:02;;;;;;;14.73;3.63;;;;;;;;;;5070772;28;20460;-62
2022/11/07 13:33:30;;;;;;;20.83;4.37;;;;;;;;;;5069472;28;20048;-62
2022/11/07 13:35:58;;;;;;;20.30;4.40;;;;;;;;;;5069969;28;20047;-62
2022/11/07 13:38:26;;;;;;;12.07;3.07;;;;;;;;;;5070734;28;20402;-62
2022/11/07 13:40:57;;;;;;;15.83;4.20;;;;;;;;;;5070808;28;20070;-62
2022/11/07 13:43:26;;;;;;;14.43;4.90;;;;;;;;;;5070531;28;20044;-62
2022/11/07 13:45:55;;;;;;;13.40;3.97;;;;;;;;;;5068401;28;20051;-62
2022/11/07 13:48:22;;;;;;;10.97;4.17;;;;;;;;;;5069857;28;20041;-62
2022/11/07 13:51:00;;;;;;;14.97;5.43;;;;;;;;;;5070152;28;20124;-62
2022/11/07 13:53:30;;;;;;;17.20;4.20;;;;;;;;;;5064750;28;20041;-62
2022/11/07 13:56:22;;;;;;;17.23;4.97;;;;;;;;;;5066141;28;20037;-62
2022/11/07 13:58:49;;;;;;;17.83;4.10;;;;;;;;;;5068471;28;20585;-62
2022/11/07 14:01:15;;;;;;;14.50;3.90;;;;;;;;;;5064906;28;20045;-62
2022/11/07 14:03:41;;;;;;;13.97;3.87;;;;;;;;;;5070332;28;20072;-62
2022/11/07 14:06:07;;;;;;;13.20;3.90;;;;;;;;;;5064037;28;20501;-62
2022/11/07 14:08:39;;;;;;;15.43;4.00;;;;;;;;;;5069219;28;20045;-62
2022/11/07 14:11:14;;;;;;;17.03;4.60;;;;;;;;;;5064363;28;20048;-62
2022/11/07 14:13:40;;;;;;;19.00;5.20;;;;;;;;;;5070150;28;20665;-62
2022/11/07 14:16:15;;;;;;;24.73;6.93;;;;;;;;;;5070561;28;20419;-62
2022/11/07 14:18:54;;;;;;;18.07;3.97;;;;;;;;;;5070000;28;20041;-62
2022/11/07 14:21:25;;;;;;;19.20;4.13;;;;;;;;;;5069921;28;20056;-62
2022/11/07 14:23:52;;;;;;;14.90;4.47;;;;;;;;;;5062731;28;20051;-62
2022/11/07 14:26:25;;;;;;;12.37;4.67;;;;;;;;;;5051343;28;20422;-62
2022/11/07 14:28:56;;;;;;;12.75;4.20;;;;;;;;;;5064424;28;20044;-62
2022/11/07 14:31:37;;;;;;;14.33;3.97;;;;;;;;;;5055773;28;20126;-62
2022/11/07 14:34:15;;;;;;;17.90;4.30;;;;;;;;;;5050972;28;20202;-62
2022/11/07 14:36:52;;;;;;;16.97;4.50;;;;;;;;;;5049502;28;20494;-62
2022/11/07 14:39:18;;;;;;;16.87;5.20;;;;;;;;;;5051402;28;20131;-62
2022/11/07 14:41:45;;;;;;;20.73;3.90;;;;;;;;;;5051224;28;20140;-62
2022/11/07 14:44:19;;;;;;;10.70;3.33;;;;;;;;;;5050771;28;20049;-62
2022/11/07 14:46:46;;;;;;;12.23;3.50;;;;;;;;;;5050569;28;20044;-62
2022/11/07 14:49:18;;;;;;;17.57;4.53;;;;;;;;;;5051207;28;20045;-62
2022/11/07 14:51:44;;;;;;;17.63;3.70;;;;;;;;;;5068519;28;20482;-62
2022/11/07 14:54:12;;;;;;;12.23;3.37;;;;;;;;;;5065497;28;20072;-62